Time;durP1;ratioP1;P1;durP2;ratioP2;P2;SDS_P1;SDS_P2;PMS_P1;PMS_P2;Temp;Humidity;BMP_temperature;BMP_pressure;BME280_temperature;BME280_humidity;BME280_pressure;Samples;Min_cycle;Max_cycle;Signal;HPM_P1;HPM_P2
2022/08/25 00:02:23;;;;;;;4.63;4.23;;;16.70;99.90;18.10;97026.00;;;;5031396;28;20715;-72
2022/08/25 00:05:12;;;;;;;6.03;5.43;;;16.70;99.90;18.20;97019.00;;;;5029453;28;20221;-71
2022/08/25 00:08:02;;;;;;;6.30;4.40;;;16.70;99.90;18.00;97019.00;;;;5031510;28;20920;-72
2022/08/25 00:10:51;;;;;;;5.83;4.77;;;16.70;99.90;17.90;97019.00;;;;5047890;28;20204;-73
2022/08/25 00:13:45;;;;;;;5.20;4.70;;;16.70;99.90;17.60;97029.00;;;;5033060;28;20216;-72
2022/08/25 00:16:35;;;;;;;5.13;4.60;;;16.60;99.90;17.70;97015.00;;;;5033794;28;20198;-71
2022/08/25 00:19:30;;;;;;;6.23;4.40;;;16.50;99.90;17.80;97007.00;;;;5031765;28;20691;-71
2022/08/25 00:22:19;;;;;;;7.73;4.63;;;16.50;99.90;17.60;97006.00;;;;5030902;28;20204;-72
2022/08/25 00:25:09;;;;;;;5.90;5.30;;;16.50;99.90;17.80;97011.00;;;;5031826;28;20285;-72
2022/08/25 00:27:58;;;;;;;6.27;4.70;;;16.50;99.90;17.60;97007.00;;;;5031118;28;20240;-71
2022/08/25 00:30:48;;;;;;;6.23;5.60;;;16.50;99.90;17.30;97001.00;;;;5024300;28;20208;-72
2022/08/25 00:33:38;;;;;;;6.07;4.73;;;16.40;99.90;17.10;96999.00;;;;5030622;28;20248;-73
2022/08/25 00:36:28;;;;;;;6.50;5.60;;;16.30;99.90;17.20;96993.00;;;;5048969;28;20201;-72
2022/08/25 00:39:19;;;;;;;6.23;4.57;;;16.30;99.90;17.50;96992.00;;;;5047332;28;20690;-72
2022/08/25 00:42:09;;;;;;;7.70;4.77;;;16.20;99.90;17.60;96992.00;;;;5040831;28;20229;-72
2022/08/25 00:44:58;;;;;;;5.87;4.67;;;16.30;99.90;17.70;96992.00;;;;5033427;28;20751;-72
2022/08/25 00:47:48;;;;;;;5.43;4.93;;;16.30;99.90;17.70;96989.00;;;;5033463;28;20236;-72
2022/08/25 00:50:38;;;;;;;5.90;5.30;;;16.40;99.90;17.70;96991.00;;;;5040735;28;20572;-72
2022/08/25 00:53:27;;;;;;;6.07;5.10;;;16.40;99.90;17.90;96986.00;;;;5047341;28;20200;-72
2022/08/25 00:56:17;;;;;;;9.37;5.30;;;16.50;99.90;18.00;96993.00;;;;5048939;28;20220;-71
2022/08/25 00:59:06;;;;;;;5.10;4.70;;;16.50;99.90;18.00;96987.00;;;;5021425;28;20197;-71
2022/08/25 01:01:57;;;;;;;9.80;5.23;;;16.60;99.90;17.70;96986.00;;;;5044026;28;20205;-73
2022/08/25 01:04:46;;;;;;;4.30;3.90;;;16.50;99.90;17.40;96974.00;;;;5037282;28;20224;-71
2022/08/25 01:07:37;;;;;;;5.73;4.63;;;16.50;99.90;17.40;96976.00;;;;5045520;28;20831;-70
2022/08/25 01:10:27;;;;;;;7.63;5.77;;;16.40;99.90;17.30;96977.00;;;;5047805;28;20205;-71
2022/08/25 01:13:22;;;;;;;7.37;5.40;;;16.30;99.90;17.40;96966.00;;;;5035221;28;20692;-71
2022/08/25 01:16:14;;;;;;;6.23;4.43;;;16.30;99.90;17.60;96975.00;;;;5035998;28;20228;-71
2022/08/25 01:19:05;;;;;;;6.27;5.23;;;16.30;99.90;17.80;96971.00;;;;5024705;28;20193;-71
2022/08/25 01:21:56;;;;;;;7.73;5.40;;;16.30;99.90;17.80;96973.00;;;;5030532;28;20201;-72
2022/08/25 01:24:57;;;;;;;4.53;4.10;;;16.30;99.90;17.90;96974.00;;;;5029930;22;20225;-89
2022/08/25 01:27:46;;;;;;;5.30;4.80;;;16.40;99.90;17.90;96967.00;;;;5047412;28;20235;-88
2022/08/25 01:30:35;;;;;;;5.53;4.80;;;16.40;99.90;17.80;96961.00;;;;5041354;28;20276;-87
2022/08/25 01:33:24;;;;;;;9.07;4.83;;;16.40;99.90;17.70;96965.00;;;;5032532;28;20795;-88
2022/08/25 01:36:17;;;;;;;5.50;4.90;;;16.40;99.90;17.90;96963.00;;;;5022427;28;20201;-88
2022/08/25 01:39:08;;;;;;;7.60;5.20;;;16.40;99.90;17.80;96962.00;;;;5053218;22;20252;-75
2022/08/25 01:42:18;;;;;;;5.23;4.67;;;16.40;99.90;17.90;96953.00;;;;5030325;28;20205;-75
2022/08/25 01:45:09;;;;;;;6.93;4.87;;;16.50;99.90;17.80;96953.00;;;;5030857;28;20586;-75
2022/08/25 01:47:58;;;;;;;5.20;4.70;;;16.50;99.90;17.80;96959.00;;;;5030791;28;20247;-75
2022/08/25 01:50:47;;;;;;;5.43;4.93;;;16.50;99.90;17.70;96948.00;;;;5030216;28;20208;-75
2022/08/25 01:53:36;;;;;;;6.30;5.10;;;16.50;99.90;18.00;96952.00;;;;5027664;28;20696;-75
2022/08/25 01:56:26;;;;;;;6.40;4.70;;;16.50;99.90;18.00;96954.00;;;;5020444;28;20241;-75
2022/08/25 01:59:16;;;;;;;5.00;4.60;;;16.50;99.90;18.10;96965.00;;;;5029122;28;20200;-75
2022/08/25 02:02:06;;;;;;;5.00;4.53;;;16.60;99.90;18.00;96954.00;;;;5039615;28;20193;-75
2022/08/25 02:04:55;;;;;;;6.93;5.00;;;16.60;99.90;17.70;96946.00;;;;5030878;28;20221;-75
2022/08/25 02:07:44;;;;;;;5.50;4.93;;;16.60;99.90;17.60;96952.00;;;;5027758;28;20719;-75
2022/08/25 02:10:34;;;;;;;6.53;4.40;;;16.50;99.90;17.70;96953.00;;;;5029855;28;20579;-75
2022/08/25 02:13:24;;;;;;;5.80;5.00;;;16.50;99.90;17.40;96947.00;;;;5028234;28;20197;-75
2022/08/25 02:16:20;;;;;;;5.87;5.10;;;16.40;99.90;17.30;96946.00;;;;5029452;28;20229;-75
2022/08/25 02:19:12;;;;;;;8.37;5.60;;;16.30;99.90;17.40;96949.00;;;;5024871;28;20200;-75
2022/08/25 02:22:01;;;;;;;8.77;5.53;;;16.30;99.90;17.50;96943.00;;;;5025307;28;20209;-75
2022/08/25 02:24:50;;;;;;;5.93;5.03;;;16.30;99.90;17.30;96942.00;;;;5045759;28;20208;-75
2022/08/25 02:27:39;;;;;;;5.37;4.60;;;16.20;99.90;17.30;96945.00;;;;5029740;28;20213;-75
2022/08/25 02:30:29;;;;;;;6.40;4.67;;;16.20;99.90;17.50;96938.00;;;;5030174;28;20189;-75
2022/08/25 02:33:18;;;;;;;6.27;4.97;;;16.20;99.90;17.50;96946.00;;;;5030004;28;20698;-75
2022/08/25 02:36:07;;;;;;;6.40;4.80;;;16.20;99.90;17.60;96943.00;;;;5044905;28;21032;-75
2022/08/25 02:38:56;;;;;;;7.83;5.00;;;16.20;99.90;17.60;96948.00;;;;5058799;28;20227;-75
2022/08/25 02:41:45;;;;;;;5.23;4.43;;;16.20;99.90;17.60;96943.00;;;;5040268;28;20208;-75
2022/08/25 02:44:34;;;;;;;6.97;5.20;;;16.20;99.90;17.70;96932.00;;;;5038331;28;20201;-75
2022/08/25 02:47:24;;;;;;;6.50;5.20;;;16.30;99.90;17.60;96927.00;;;;5059622;28;20197;-74
2022/08/25 02:50:13;;;;;;;8.17;4.80;;;16.30;99.90;17.90;96928.00;;;;5049653;28;20227;-75
2022/08/25 02:53:02;;;;;;;7.53;4.87;;;16.30;99.90;17.80;96925.00;;;;5048613;28;20197;-74
2022/08/25 02:55:51;;;;;;;6.17;5.10;;;16.40;99.90;17.60;96921.00;;;;5051840;28;20219;-75
2022/08/25 02:58:41;;;;;;;5.90;5.37;;;16.40;99.90;17.40;96923.00;;;;5051134;28;20714;-75
2022/08/25 03:01:30;;;;;;;6.73;5.10;;;16.40;99.90;17.50;96914.00;;;;5052279;28;20201;-74
2022/08/25 03:04:21;;;;;;;6.60;5.73;;;16.40;99.90;17.40;96910.00;;;;5043983;28;20197;-76
2022/08/25 03:07:11;;;;;;;6.47;5.70;;;16.30;99.90;17.40;96911.00;;;;5043899;28;20257;-74
2022/08/25 03:10:00;;;;;;;5.43;4.90;;;16.30;99.90;17.40;96916.00;;;;5052333;28;20193;-75
2022/08/25 03:12:49;;;;;;;7.77;5.53;;;16.30;99.90;17.20;96921.00;;;;5051434;28;20664;-74
2022/08/25 03:15:38;;;;;;;5.80;5.20;;;16.20;99.90;17.00;96914.00;;;;5054946;28;20710;-74
2022/08/25 03:18:27;;;;;;;5.87;5.20;;;16.20;99.90;17.10;96912.00;;;;5054335;28;20208;-74
2022/08/25 03:21:17;;;;;;;7.40;5.30;;;16.20;99.90;17.00;96911.00;;;;5051830;28;20652;-74
2022/08/25 03:24:07;;;;;;;6.70;5.23;;;16.10;99.90;17.00;96913.00;;;;5052308;28;20279;-73
2022/08/25 03:26:55;;;;;;;5.67;4.80;;;16.10;99.90;17.00;96907.00;;;;5053049;28;20231;-74
2022/08/25 03:29:44;;;;;;;8.33;5.83;;;16.00;99.90;17.40;96908.00;;;;5058268;28;20605;-75
2022/08/25 03:32:33;;;;;;;7.03;5.00;;;16.10;99.90;17.00;96905.00;;;;5044596;28;20691;-75
2022/08/25 03:35:22;;;;;;;5.93;5.33;;;16.10;99.90;17.10;96901.00;;;;5064472;28;20227;-75
2022/08/25 03:38:12;;;;;;;6.70;5.23;;;16.00;99.90;17.20;96914.00;;;;5060891;28;20211;-73
2022/08/25 03:41:01;;;;;;;8.07;5.53;;;16.00;99.90;17.30;96906.00;;;;5053729;28;20204;-74
2022/08/25 03:43:51;;;;;;;8.07;5.50;;;16.10;99.90;17.30;96908.00;;;;5049948;28;20683;-74
2022/08/25 03:46:43;;;;;;;6.93;4.93;;;16.10;99.90;17.60;96905.00;;;;5052752;28;20234;-74
2022/08/25 03:49:32;;;;;;;11.20;6.47;;;16.20;99.90;17.60;96913.00;;;;5046439;28;20221;-74
2022/08/25 03:52:20;;;;;;;6.43;5.67;;;16.30;99.90;17.60;96911.00;;;;5052025;28;20196;-74
2022/08/25 03:55:14;;;;;;;7.33;6.07;;;16.30;99.90;17.80;96906.00;;;;5042610;28;20231;-74
2022/08/25 03:58:03;;;;;;;7.73;5.20;;;16.30;99.90;18.00;96912.00;;;;5050457;28;20227;-74
2022/08/25 04:00:52;;;;;;;7.30;5.30;;;16.40;99.90;18.00;96901.00;;;;5055135;28;20206;-74
2022/08/25 04:03:41;;;;;;;7.10;4.90;;;16.50;99.90;17.80;96893.00;;;;5062876;28;20703;-75
2022/08/25 04:06:30;;;;;;;6.63;5.40;;;16.50;99.90;17.70;96899.00;;;;5046928;28;20231;-74
2022/08/25 04:09:19;;;;;;;8.80;5.17;;;16.50;99.90;17.70;96901.00;;;;5044242;28;20208;-75
2022/08/25 04:12:09;;;;;;;6.77;5.40;;;16.50;99.90;17.40;96890.00;;;;5050120;28;20197;-75
2022/08/25 04:14:58;;;;;;;6.93;5.13;;;16.40;99.90;17.30;96895.00;;;;5046485;28;20228;-74
2022/08/25 04:17:47;;;;;;;6.07;5.47;;;16.40;99.90;17.40;96887.00;;;;5049315;28;20734;-74
2022/08/25 04:20:36;;;;;;;8.80;5.80;;;16.30;99.90;17.30;96887.00;;;;5047127;28;20212;-75
2022/08/25 04:23:25;;;;;;;5.90;5.30;;;16.30;99.90;17.30;96885.00;;;;5049699;28;20201;-73
2022/08/25 04:26:18;;;;;;;7.13;5.37;;;16.20;99.90;17.10;96888.00;;;;5050667;28;20228;-74
2022/08/25 04:29:10;;;;;;;8.10;5.87;;;16.20;99.90;17.10;96888.00;;;;5048997;28;20235;-75
2022/08/25 04:31:59;;;;;;;6.67;5.67;;;16.10;99.90;17.10;96898.00;;;;5047544;28;20208;-75
2022/08/25 04:34:48;;;;;;;12.43;6.83;;;16.10;99.90;16.90;96888.00;;;;5048805;28;20197;-72
2022/08/25 04:37:37;;;;;;;9.80;5.40;;;16.10;99.90;17.10;96897.00;;;;5049295;28;20691;-75
2022/08/25 04:40:26;;;;;;;6.13;5.53;;;16.10;99.90;17.60;96902.00;;;;5049091;28;20189;-74
2022/08/25 04:43:15;;;;;;;6.50;5.60;;;16.20;99.90;17.70;96894.00;;;;5039626;28;20212;-74
2022/08/25 04:46:09;;;;;;;7.67;5.43;;;16.20;99.90;17.50;96893.00;;;;5050369;28;20223;-74
2022/08/25 04:49:00;;;;;;;6.63;5.43;;;16.30;99.90;17.70;96897.00;;;;5029533;28;20711;-74
2022/08/25 04:51:49;;;;;;;7.47;5.83;;;16.40;99.90;17.70;96898.00;;;;5031352;28;20581;-74
2022/08/25 04:54:38;;;;;;;7.57;6.83;;;16.50;99.90;17.60;96899.00;;;;5030498;28;20201;-73
2022/08/25 04:57:27;;;;;;;6.67;5.17;;;16.50;99.90;17.60;96907.00;;;;5041876;28;20212;-75
2022/08/25 05:00:18;;;;;;;9.33;5.47;;;16.50;99.90;17.60;96905.00;;;;5032108;28;20201;-74
2022/08/25 05:03:08;;;;;;;5.77;5.17;;;16.50;99.90;17.80;96906.00;;;;5036646;28;20209;-72
2022/08/25 05:05:57;;;;;;;6.07;5.43;;;16.60;99.90;17.90;96900.00;;;;5034725;28;20235;-73
2022/08/25 05:08:46;;;;;;;7.40;6.30;;;16.60;99.90;17.90;96901.00;;;;5038300;28;20201;-74
2022/08/25 05:11:35;;;;;;;6.23;5.60;;;16.70;99.90;18.00;96906.00;;;;5040137;28;20228;-74
2022/08/25 05:14:24;;;;;;;8.70;5.70;;;16.70;99.90;18.30;96902.00;;;;5035465;28;20201;-74
2022/08/25 05:17:14;;;;;;;6.80;6.17;;;16.80;99.90;18.40;96904.00;;;;5032381;28;20201;-74
2022/08/25 05:20:05;;;;;;;9.63;6.03;;;16.90;99.90;18.20;96903.00;;;;5034248;28;20200;-75
2022/08/25 05:22:54;;;;;;;9.03;8.13;;;16.90;99.90;18.00;96908.00;;;;5034337;28;20213;-74
2022/08/25 05:25:43;;;;;;;14.07;12.23;;;17.00;99.90;18.40;96901.00;;;;5040815;28;20227;-74
2022/08/25 05:28:32;;;;;;;8.97;8.07;;;17.00;99.90;18.60;96914.00;;;;5033276;28;20204;-75
2022/08/25 05:31:23;;;;;;;12.00;9.40;;;17.10;99.90;18.50;96907.00;;;;5016164;28;20209;-74
2022/08/25 05:34:12;;;;;;;11.53;9.97;;;17.20;99.90;18.50;96909.00;;;;5027087;28;20205;-72
2022/08/25 05:37:03;;;;;;;8.97;8.03;;;17.20;99.90;18.80;96904.00;;;;5029690;28;20602;-74
2022/08/25 05:39:52;;;;;;;11.20;9.53;;;17.30;99.90;18.50;96905.00;;;;5039020;28;20197;-75
2022/08/25 05:42:41;;;;;;;8.67;6.83;;;17.40;99.90;18.60;96908.00;;;;5034606;28;20197;-74
2022/08/25 05:45:30;;;;;;;7.00;6.03;;;17.40;99.90;18.80;96907.00;;;;5029930;28;20221;-74
2022/08/25 05:48:19;;;;;;;8.63;6.30;;;17.40;99.90;19.20;96908.00;;;;5026483;28;20193;-74
2022/08/25 05:51:11;;;;;;;7.73;5.83;;;17.60;99.90;19.30;96914.00;;;;5043129;28;20244;-74
2022/08/25 05:54:02;;;;;;;9.10;5.40;;;17.70;99.90;19.20;96908.00;;;;5040355;28;20570;-73
2022/08/25 05:56:51;;;;;;;9.83;6.23;;;17.70;99.90;19.30;96910.00;;;;5048458;28;20238;-74
2022/08/25 05:59:39;;;;;;;7.30;5.67;;;17.80;99.90;19.60;96916.00;;;;5035837;28;20189;-74
2022/08/25 06:02:43;;;;;;;8.57;6.07;;;18.00;99.90;19.80;96910.00;;;;5038832;28;20569;-76
2022/08/25 06:05:32;;;;;;;6.23;5.30;;;18.10;99.90;20.10;96923.00;;;;5029178;28;20228;-75
2022/08/25 06:08:21;;;;;;;8.30;6.20;;;18.30;99.90;20.20;96914.00;;;;5028593;28;20668;-75
2022/08/25 06:11:11;;;;;;;6.80;5.77;;;18.50;99.90;20.50;96919.00;;;;5044200;28;20819;-74
2022/08/25 06:14:00;;;;;;;6.73;5.20;;;18.60;99.90;20.70;96914.00;;;;5024172;28;20209;-74
2022/08/25 06:16:50;;;;;;;8.00;5.73;;;18.80;99.90;21.00;96910.00;;;;5026094;28;20227;-74
2022/08/25 06:19:39;;;;;;;6.07;5.17;;;19.00;99.90;21.10;96906.00;;;;5035211;28;20193;-74
2022/08/25 06:22:28;;;;;;;7.47;5.40;;;19.10;99.90;21.40;96911.00;;;;5033937;28;20296;-74
2022/08/25 06:25:20;;;;;;;10.67;6.07;;;19.30;99.90;21.50;96911.00;;;;5028508;28;20700;-74
2022/08/25 06:28:10;;;;;;;5.97;4.40;;;19.60;99.90;21.90;96908.00;;;;5030730;28;20193;-74
2022/08/25 06:31:00;;;;;;;11.60;4.87;;;19.80;99.90;22.20;96923.00;;;;5031826;28;20228;-74
2022/08/25 06:33:49;;;;;;;8.17;4.97;;;20.00;99.90;22.20;96924.00;;;;5028266;28;20704;-74
2022/08/25 06:36:38;;;;;;;6.20;5.17;;;20.20;99.90;22.20;96923.00;;;;5029285;28;20708;-74
2022/08/25 06:39:27;;;;;;;6.97;4.53;;;20.30;99.90;22.20;96929.00;;;;5046838;28;20204;-74
2022/08/25 06:42:16;;;;;;;5.73;4.23;;;20.40;99.90;22.20;96925.00;;;;5049229;28;20236;-74
2022/08/25 06:45:08;;;;;;;10.10;7.87;;;20.40;99.90;22.40;96918.00;;;;5054701;28;20212;-73
2022/08/25 06:47:58;;;;;;;5.37;4.07;;;20.50;99.90;22.30;96930.00;;;;5047098;28;20208;-74
2022/08/25 06:50:47;;;;;;;7.13;4.50;;;20.60;99.90;22.40;96929.00;;;;5063474;28;20255;-73
2022/08/25 06:53:36;;;;;;;9.47;5.00;;;20.60;99.90;22.60;96925.00;;;;5052152;28;20200;-74
2022/08/25 06:56:25;;;;;;;4.97;3.70;;;20.70;99.90;22.70;96931.00;;;;5059701;28;20607;-74
2022/08/25 06:59:14;;;;;;;8.40;5.17;;;20.80;99.90;22.80;96932.00;;;;5055986;28;20211;-73
2022/08/25 07:02:05;;;;;;;6.30;4.30;;;20.90;99.90;22.90;96935.00;;;;5065506;28;20199;-74
2022/08/25 07:04:54;;;;;;;6.20;4.67;;;21.00;99.90;22.90;96931.00;;;;5063291;28;20220;-73
2022/08/25 07:07:45;;;;;;;7.80;3.97;;;21.00;99.90;23.00;96919.00;;;;5063288;28;20200;-74
2022/08/25 07:10:34;;;;;;;9.17;4.50;;;21.10;99.90;23.20;96932.00;;;;5066091;28;20227;-73
2022/08/25 07:13:22;;;;;;;6.80;4.00;;;21.20;99.90;23.20;96924.00;;;;5044570;28;20199;-73
2022/08/25 07:16:11;;;;;;;5.57;4.60;;;21.30;99.90;23.20;96932.00;;;;5046072;28;20683;-73
2022/08/25 07:19:03;;;;;;;6.50;4.97;;;21.30;99.90;23.30;96930.00;;;;5047009;28;20315;-73
2022/08/25 07:21:54;;;;;;;7.80;4.70;;;21.40;99.90;23.20;96942.00;;;;5037507;28;20197;-73
2022/08/25 07:27:39;;;;;;;6.80;4.40;;;21.50;99.90;23.20;96943.00;;;;4985909;28;20220;-71
2022/08/25 07:30:32;;;;;;;4.43;3.93;;;21.50;99.90;23.20;96948.00;;;;4988133;28;20218;-71
2022/08/25 07:33:23;;;;;;;7.53;4.87;;;21.50;99.90;23.20;96954.00;;;;4977529;28;20215;-71
2022/08/25 07:36:12;;;;;;;11.20;5.43;;;21.50;99.90;23.30;96949.00;;;;4980574;28;20211;-71
2022/08/25 07:39:04;;;;;;;14.13;4.77;;;21.50;99.90;23.50;96942.00;;;;4991757;28;20218;-71
2022/08/25 07:41:53;;;;;;;6.33;4.03;;;21.60;99.90;23.80;96942.00;;;;4976846;28;20198;-70
2022/08/25 07:44:42;;;;;;;6.93;4.50;;;21.70;99.90;24.00;96929.00;;;;4983323;28;20219;-70
2022/08/25 07:47:31;;;;;;;6.20;4.73;;;21.90;99.90;24.70;96925.00;;;;4992279;28;20202;-71
2022/08/25 07:50:21;;;;;;;5.40;4.10;;;22.20;99.90;25.50;96920.00;;;;4989022;28;20222;-71
2022/08/25 07:53:13;;;;;;;6.53;4.47;;;22.60;99.90;25.40;96928.00;;;;5002183;28;20567;-71
2022/08/25 07:56:01;;;;;;;6.90;4.50;;;23.00;99.90;25.50;96935.00;;;;4990521;28;20222;-71
2022/08/25 07:58:55;;;;;;;5.40;3.83;;;23.30;99.90;25.50;96951.00;;;;4992186;28;20207;-70
2022/08/25 08:01:45;;;;;;;7.53;4.67;;;23.40;99.90;25.40;96942.00;;;;4988714;28;20204;-70
2022/08/25 08:04:36;;;;;;;5.37;4.27;;;23.40;99.90;25.40;96950.00;;;;5001539;28;20202;-70
2022/08/25 08:07:27;;;;;;;4.07;3.20;;;23.50;99.90;25.30;96949.00;;;;4989915;28;20201;-70
2022/08/25 08:10:18;;;;;;;5.00;3.63;;;23.50;99.90;25.30;96955.00;;;;5000451;28;20203;-70
2022/08/25 08:13:27;;;;;;;6.53;4.77;;;23.50;99.90;25.20;96955.00;;;;4986212;28;20294;-70
2022/08/25 08:16:18;;;;;;;5.53;4.33;;;23.40;99.90;25.10;96961.00;;;;4993366;28;20215;-70
2022/08/25 08:19:07;;;;;;;4.80;3.63;;;23.40;99.90;25.00;96961.00;;;;5000991;28;20572;-70
2022/08/25 08:21:56;;;;;;;4.87;4.23;;;23.30;99.90;25.00;96963.00;;;;4996082;28;20208;-70
2022/08/25 08:24:45;;;;;;;6.90;4.27;;;23.30;99.90;25.00;96961.00;;;;4999741;28;20210;-71
2022/08/25 08:27:36;;;;;;;8.40;4.90;;;23.20;99.90;25.10;96963.00;;;;4990517;28;20211;-70
2022/08/25 08:30:25;;;;;;;5.50;4.37;;;23.20;99.90;25.00;96964.00;;;;4998968;28;20202;-70
2022/08/25 08:33:14;;;;;;;8.60;4.97;;;23.20;99.90;25.00;96966.00;;;;5003209;28;20265;-70
2022/08/25 08:36:06;;;;;;;10.23;4.63;;;23.20;99.90;24.90;96962.00;;;;4976992;28;20605;-70
2022/08/25 08:38:55;;;;;;;7.23;4.40;;;23.20;99.90;25.00;96960.00;;;;4990626;28;20206;-70
2022/08/25 08:42:18;;;;;;;10.53;4.80;;;23.20;99.90;24.60;96973.00;;;;4990877;28;20674;-70
2022/08/25 08:45:29;;;;;;;4.87;4.30;;;23.10;99.90;25.00;96969.00;;;;4991483;28;20586;-70
2022/08/25 08:48:54;;;;;;;5.67;5.07;;;23.10;99.90;24.90;96974.00;;;;4978898;28;20207;-70
2022/08/25 08:51:53;;;;;;;5.10;4.50;;;23.10;99.90;24.90;96975.00;;;;4988664;28;20234;-70
2022/08/25 08:54:45;;;;;;;6.57;5.13;;;23.10;99.90;24.90;96968.00;;;;4990676;28;20199;-71
2022/08/25 08:57:41;;;;;;;7.13;5.00;;;23.10;99.90;25.00;96976.00;;;;4990874;28;20198;-70
2022/08/25 09:00:33;;;;;;;6.40;5.67;;;23.10;99.90;25.10;96976.00;;;;4985253;28;20214;-72
2022/08/25 09:03:33;;;;;;;6.77;5.80;;;23.10;99.90;25.00;96978.00;;;;4990411;28;20203;-71
2022/08/25 09:06:30;;;;;;;8.90;5.83;;;23.10;99.90;25.00;96963.00;;;;4982503;28;20245;-71
2022/08/25 09:09:26;;;;;;;9.23;6.10;;;23.10;99.90;25.10;96966.00;;;;4988878;28;20576;-72
2022/08/25 09:12:30;;;;;;;10.77;6.97;;;23.20;99.90;25.10;96966.00;;;;4995899;28;20236;-72
2022/08/25 09:16:53;;;;;;;7.10;6.37;;;23.20;99.90;24.90;96962.00;;;;4994574;28;20218;-71
2022/08/25 09:18:52;;;;;;;8.60;6.27;;;23.30;99.90;24.90;96950.00;;;;4988908;28;20214;-73
2022/08/25 09:21:49;;;;;;;7.20;6.00;;;23.30;99.90;24.90;96956.00;;;;4990235;28;20700;-73
2022/08/25 09:24:52;;;;;;;5.73;5.10;;;23.30;99.90;25.10;96960.00;;;;4990744;28;20206;-72
2022/08/25 09:27:49;;;;;;;9.03;6.13;;;23.20;99.90;25.10;96965.00;;;;4989624;28;20689;-73
2022/08/25 09:30:47;;;;;;;9.17;5.77;;;23.30;99.90;25.40;96959.00;;;;4979621;28;20207;-72
2022/08/25 09:33:36;;;;;;;11.20;6.60;;;23.40;99.90;25.60;96958.00;;;;4997145;28;20210;-72
2022/08/25 09:36:26;;;;;;;9.10;7.37;;;23.50;99.90;25.80;96957.00;;;;4995183;28;20260;-72
2022/08/25 09:39:15;;;;;;;7.57;5.73;;;23.60;99.90;25.90;96949.00;;;;4998391;28;20190;-71
2022/08/25 09:42:05;;;;;;;10.93;8.27;;;23.80;99.90;26.20;96937.00;;;;4997857;28;20207;-71
2022/08/25 09:44:54;;;;;;;9.87;6.47;;;23.90;99.90;26.40;96943.00;;;;4988702;28;20201;-70
2022/08/25 09:47:45;;;;;;;9.37;7.03;;;24.10;99.90;26.50;96951.00;;;;4988726;28;20211;-71
2022/08/25 09:50:34;;;;;;;9.13;6.53;;;24.30;99.90;26.50;96946.00;;;;4989853;28;20203;-71
2022/08/25 09:53:24;;;;;;;7.43;6.67;;;24.40;99.90;26.40;96946.00;;;;4987823;28;20206;-71
2022/08/25 09:56:15;;;;;;;11.30;7.37;;;24.40;99.90;26.60;96951.00;;;;4977455;28;20243;-71
2022/08/25 09:59:22;;;;;;;11.40;6.10;;;24.50;99.90;26.80;96937.00;;;;4991074;28;20209;-70
2022/08/25 10:02:25;;;;;;;10.03;6.40;;;24.60;99.90;26.80;96931.00;;;;4972719;28;20248;-71
2022/08/25 10:05:24;;;;;;;7.67;6.63;;;24.70;99.90;26.90;96924.00;;;;4985039;28;20767;-71
2022/08/25 10:08:25;;;;;;;10.80;7.07;;;24.90;99.90;27.70;96911.00;;;;4991362;28;20204;-71
2022/08/25 10:11:30;;;;;;;8.40;7.27;;;25.10;99.90;27.50;96916.00;;;;4988826;28;20206;-71
2022/08/25 10:14:28;;;;;;;9.87;7.47;;;25.50;99.90;27.70;96918.00;;;;4977130;28;20221;-70
2022/08/25 10:17:25;;;;;;;9.03;7.73;;;25.70;99.90;28.00;96929.00;;;;4985390;28;20210;-71
2022/08/25 10:20:20;;;;;;;8.47;6.70;;;25.80;99.90;27.80;96929.00;;;;4995047;28;20633;-71
2022/08/25 10:23:14;;;;;;;8.97;6.60;;;25.80;99.90;27.60;96930.00;;;;4986496;28;20610;-71
2022/08/25 10:26:13;;;;;;;11.10;7.57;;;25.80;99.90;27.50;96916.00;;;;4987115;28;20239;-71
2022/08/25 10:29:21;;;;;;;7.67;6.53;;;25.80;99.90;27.80;96914.00;;;;4988892;28;20204;-71
2022/08/25 10:32:16;;;;;;;8.67;6.77;;;25.80;99.90;28.00;96914.00;;;;4988110;28;20726;-71
2022/08/25 10:35:14;;;;;;;7.17;6.40;;;25.90;99.90;28.00;96911.00;;;;4990027;28;20208;-71
2022/08/25 10:38:17;;;;;;;8.17;7.27;;;26.00;99.90;28.30;96910.00;;;;4983794;28;20600;-72
2022/08/25 10:41:30;;;;;;;9.53;6.23;;;26.20;99.90;27.80;96904.00;;;;4988622;28;20213;-71
2022/08/25 10:48:07;;;;;;;8.07;6.73;;;26.30;99.90;28.40;96906.00;;;;4987724;28;20206;-70
2022/08/25 10:51:02;;;;;;;11.13;6.60;;;26.40;99.90;28.50;96892.00;;;;4985126;28;20197;-71
2022/08/25 10:54:00;;;;;;;7.23;6.37;;;26.50;99.90;28.50;96896.00;;;;4980329;28;20197;-70
2022/08/25 10:57:01;;;;;;;11.60;6.33;;;26.60;99.90;28.50;96889.00;;;;4987776;28;20587;-70
2022/08/25 11:00:02;;;;;;;10.87;6.03;;;26.60;99.90;28.10;96892.00;;;;4987511;28;20209;-70
2022/08/25 11:03:20;;;;;;;9.17;6.67;;;26.50;99.90;28.10;96879.00;;;;4987967;28;20204;-70
2022/08/25 11:06:14;;;;;;;8.97;5.87;;;26.50;99.90;28.40;96882.00;;;;4987728;28;20694;-71
2022/08/25 11:09:08;;;;;;;10.30;7.33;;;26.50;99.90;28.70;96857.00;;;;4989091;28;20205;-70
2022/08/25 11:12:03;;;;;;;8.27;6.87;;;26.60;99.90;27.80;96867.00;;;;4982885;28;20232;-70
2022/08/25 11:14:57;;;;;;;11.50;6.93;;;26.60;99.90;27.90;96852.00;;;;5007882;28;20586;-70
2022/08/25 11:17:53;;;;;;;9.63;6.40;;;26.60;99.90;28.70;96856.00;;;;4986726;28;20210;-70
2022/08/25 11:20:50;;;;;;;11.10;7.47;;;26.60;99.90;29.40;96845.00;;;;4991713;28;20205;-70
2022/08/25 11:23:44;;;;;;;9.90;6.20;;;26.80;99.90;29.60;96849.00;;;;4992133;28;20216;-70
2022/08/25 11:26:38;;;;;;;7.33;6.50;;;27.20;99.90;29.10;96836.00;;;;4988769;28;20231;-70
2022/08/25 11:29:34;;;;;;;8.87;6.90;;;27.20;99.90;29.10;96790.00;;;;4991765;28;20200;-70
2022/08/25 11:32:24;;;;;;;7.90;6.37;;;27.60;99.90;29.50;96790.00;;;;4987766;28;20224;-72
2022/08/25 11:35:15;;;;;;;13.10;6.43;;;27.80;99.90;28.80;96778.00;;;;4993640;28;20220;-70
2022/08/25 11:38:22;;;;;;;6.80;5.73;;;27.90;99.90;29.80;96781.00;;;;4990024;28;20215;-72
2022/08/25 11:41:25;;;;;;;7.37;6.13;;;28.00;99.90;30.30;96780.00;;;;4992732;28;20201;-71
2022/08/25 11:44:37;;;;;;;6.93;6.33;;;28.40;99.90;31.10;96773.00;;;;4992852;28;20705;-70
2022/08/25 11:47:54;;;;;;;9.30;6.50;;;28.80;99.90;30.90;96770.00;;;;4987961;28;20686;-71
2022/08/25 11:51:02;;;;;;;9.63;6.28;;;29.40;99.90;30.50;96761.00;;;;5004359;28;20592;-72
2022/08/25 11:54:16;;;;;;;7.70;6.32;;;29.30;99.90;30.40;96764.00;;;;5005679;28;20228;-73
2022/08/25 11:57:10;;;;;;;8.82;5.43;;;29.00;99.90;30.70;96763.00;;;;5009190;28;20238;-70
2022/08/25 12:00:14;;;;;;;6.82;5.65;;;29.00;99.90;31.00;96763.00;;;;4989762;28;20224;-71
2022/08/25 12:04:16;;;;;;;8.90;5.88;;;29.10;99.90;30.90;96752.00;;;;4990210;28;20198;-70
2022/08/25 12:07:29;;;;;;;6.85;5.90;;;29.00;99.90;31.30;96747.00;;;;4967474;28;20733;-72
2022/08/25 12:10:21;;;;;;;7.63;5.85;;;29.30;99.90;32.20;96744.00;;;;4992094;28;20227;-72
2022/08/25 12:13:46;;;;;;;8.45;6.90;;;29.70;99.90;32.30;96752.00;;;;4996559;28;20230;-72
2022/08/25 12:16:43;;;;;;;7.78;5.68;;;29.90;99.00;33.20;96743.00;;;;4991264;28;20220;-72
2022/08/25 12:19:52;;;;;;;5.95;4.85;;;30.50;98.40;33.90;96748.00;;;;4991296;28;20200;-73
2022/08/25 12:23:00;;;;;;;5.45;4.93;;;30.80;96.90;33.80;96741.00;;;;4990033;28;20217;-71
2022/08/25 12:25:53;;;;;;;6.97;5.43;;;31.10;96.50;33.80;96755.00;;;;4992934;28;20248;-72
2022/08/25 12:29:00;;;;;;;7.20;4.55;;;31.40;95.90;35.20;96809.00;;;;4990692;28;20216;-72
2022/08/25 12:32:18;;;;;;;5.40;4.90;;;31.80;95.10;32.90;96749.00;;;;4982691;28;20635;-72
2022/08/25 12:35:30;;;;;;;8.23;6.07;;;31.70;93.10;34.40;96750.00;;;;4998657;28;20209;-71
2022/08/25 12:38:31;;;;;;;8.25;5.20;;;32.00;92.90;33.60;96749.00;;;;4997321;28;20205;-72
2022/08/25 12:41:24;;;;;;;7.18;5.07;;;32.00;91.40;34.60;96746.00;;;;5006714;28;20198;-73
2022/08/25 12:44:38;;;;;;;6.28;4.63;;;32.10;90.80;33.90;96747.00;;;;4991704;28;20198;-72
2022/08/25 12:47:31;;;;;;;7.85;5.32;;;32.20;90.10;35.70;96749.00;;;;4991657;28;20198;-73
2022/08/25 12:50:41;;;;;;;9.65;6.22;;;32.50;90.30;34.60;96753.00;;;;4991827;28;20987;-73
2022/08/25 12:53:36;;;;;;;5.65;5.07;;;32.70;89.00;35.30;96758.00;;;;4997841;28;20227;-73
2022/08/25 12:56:33;;;;;;;9.93;5.75;;;32.80;88.10;35.80;96752.00;;;;5010917;28;20260;-72